sensor_id;sensor_type;location;lat;lon;timestamp;P1;durP1;ratioP1;P2;durP2;ratioP2
78324;SDS011;67584;51.400;6.692;2023-09-30T00:00:36;10.73;;;4.88;;
78324;SDS011;67584;51.400;6.692;2023-09-30T00:03:02;11.73;;;5.38;;
78324;SDS011;67584;51.400;6.692;2023-09-30T00:05:28;14.45;;;4.95;;
78324;SDS011;67584;51.400;6.692;2023-09-30T00:07:54;8.85;;;4.75;;
78324;SDS011;67584;51.400;6.692;2023-09-30T00:10:19;10.10;;;5.25;;
78324;SDS011;67584;51.400;6.692;2023-09-30T00:12:45;10.82;;;4.13;;
78324;SDS011;67584;51.400;6.692;2023-09-30T00:15:11;8.82;;;5.03;;
78324;SDS011;67584;51.400;6.692;2023-09-30T00:17:36;9.52;;;5.65;;
78324;SDS011;67584;51.400;6.692;2023-09-30T00:20:02;11.10;;;4.80;;
78324;SDS011;67584;51.400;6.692;2023-09-30T00:22:29;13.98;;;5.50;;
78324;SDS011;67584;51.400;6.692;2023-09-30T00:24:55;9.20;;;4.97;;
78324;SDS011;67584;51.400;6.692;2023-09-30T00:27:20;9.45;;;4.90;;
78324;SDS011;67584;51.400;6.692;2023-09-30T00:29:46;13.05;;;4.80;;
78324;SDS011;67584;51.400;6.692;2023-09-30T00:32:12;8.10;;;4.22;;
78324;SDS011;67584;51.400;6.692;2023-09-30T00:34:37;9.10;;;4.45;;
78324;SDS011;67584;51.400;6.692;2023-09-30T00:37:03;11.07;;;5.45;;
78324;SDS011;67584;51.400;6.692;2023-09-30T00:39:29;11.93;;;5.22;;
78324;SDS011;67584;51.400;6.692;2023-09-30T00:41:58;14.60;;;7.55;;
78324;SDS011;67584;51.400;6.692;2023-09-30T00:44:25;13.18;;;6.68;;
78324;SDS011;67584;51.400;6.692;2023-09-30T00:46:51;13.88;;;7.68;;
78324;SDS011;67584;51.400;6.692;2023-09-30T00:49:17;11.90;;;7.15;;
78324;SDS011;67584;51.400;6.692;2023-09-30T00:51:44;14.48;;;6.40;;
78324;SDS011;67584;51.400;6.692;2023-09-30T00:54:11;9.05;;;5.25;;
78324;SDS011;67584;51.400;6.692;2023-09-30T00:56:39;14.88;;;6.50;;
78324;SDS011;67584;51.400;6.692;2023-09-30T00:59:11;15.30;;;6.40;;
78324;SDS011;67584;51.400;6.692;2023-09-30T01:01:43;9.45;;;5.45;;
78324;SDS011;67584;51.400;6.692;2023-09-30T01:04:13;9.93;;;5.65;;
78324;SDS011;67584;51.400;6.692;2023-09-30T01:06:40;14.55;;;7.15;;
78324;SDS011;67584;51.400;6.692;2023-09-30T01:09:06;15.40;;;7.68;;
78324;SDS011;67584;51.400;6.692;2023-09-30T01:11:33;12.80;;;5.65;;
78324;SDS011;67584;51.400;6.692;2023-09-30T01:13:59;10.82;;;5.43;;
78324;SDS011;67584;51.400;6.692;2023-09-30T01:16:25;13.90;;;6.50;;
78324;SDS011;67584;51.400;6.692;2023-09-30T01:18:50;14.13;;;6.00;;
78324;SDS011;67584;51.400;6.692;2023-09-30T01:21:16;10.98;;;5.45;;
78324;SDS011;67584;51.400;6.692;2023-09-30T01:23:43;12.35;;;5.75;;
78324;SDS011;67584;51.400;6.692;2023-09-30T01:26:12;15.73;;;6.85;;
78324;SDS011;67584;51.400;6.692;2023-09-30T01:28:39;11.45;;;6.38;;
78324;SDS011;67584;51.400;6.692;2023-09-30T01:31:05;12.88;;;5.57;;
78324;SDS011;67584;51.400;6.692;2023-09-30T01:33:31;12.80;;;6.25;;
78324;SDS011;67584;51.400;6.692;2023-09-30T01:35:59;12.40;;;6.75;;
78324;SDS011;67584;51.400;6.692;2023-09-30T01:38:25;11.80;;;6.20;;
78324;SDS011;67584;51.400;6.692;2023-09-30T01:40:51;16.40;;;6.63;;
78324;SDS011;67584;51.400;6.692;2023-09-30T01:43:17;11.43;;;5.93;;
78324;SDS011;67584;51.400;6.692;2023-09-30T01:45:43;15.13;;;6.65;;
78324;SDS011;67584;51.400;6.692;2023-09-30T01:48:09;13.82;;;7.03;;
78324;SDS011;67584;51.400;6.692;2023-09-30T01:50:39;10.82;;;6.28;;
78324;SDS011;67584;51.400;6.692;2023-09-30T01:53:05;15.35;;;7.07;;
78324;SDS011;67584;51.400;6.692;2023-09-30T01:55:34;10.98;;;6.07;;
78324;SDS011;67584;51.400;6.692;2023-09-30T01:58:03;16.05;;;6.75;;
78324;SDS011;67584;51.400;6.692;2023-09-30T02:00:29;11.73;;;5.90;;
78324;SDS011;67584;51.400;6.692;2023-09-30T02:02:55;14.38;;;6.47;;
78324;SDS011;67584;51.400;6.692;2023-09-30T02:05:22;13.35;;;5.93;;
78324;SDS011;67584;51.400;6.692;2023-09-30T02:07:49;11.75;;;5.13;;
78324;SDS011;67584;51.400;6.692;2023-09-30T02:10:15;10.25;;;5.78;;
78324;SDS011;67584;51.400;6.692;2023-09-30T02:12:44;10.80;;;5.70;;
78324;SDS011;67584;51.400;6.692;2023-09-30T02:15:13;10.20;;;5.25;;
78324;SDS011;67584;51.400;6.692;2023-09-30T02:17:39;10.52;;;4.65;;
78324;SDS011;67584;51.400;6.692;2023-09-30T02:20:05;10.60;;;4.65;;
78324;SDS011;67584;51.400;6.692;2023-09-30T02:22:38;11.18;;;5.07;;
78324;SDS011;67584;51.400;6.692;2023-09-30T02:25:05;9.23;;;4.72;;
78324;SDS011;67584;51.400;6.692;2023-09-30T02:29:59;11.13;;;4.43;;
78324;SDS011;67584;51.400;6.692;2023-09-30T02:32:25;10.52;;;4.78;;
78324;SDS011;67584;51.400;6.692;2023-09-30T02:34:50;8.15;;;4.07;;
78324;SDS011;67584;51.400;6.692;2023-09-30T02:37:16;7.82;;;4.20;;
78324;SDS011;67584;51.400;6.692;2023-09-30T02:39:43;9.02;;;4.60;;
78324;SDS011;67584;51.400;6.692;2023-09-30T02:42:09;9.95;;;4.80;;
78324;SDS011;67584;51.400;6.692;2023-09-30T02:44:35;12.95;;;5.57;;
78324;SDS011;67584;51.400;6.692;2023-09-30T02:47:01;9.63;;;5.18;;
78324;SDS011;67584;51.400;6.692;2023-09-30T02:49:27;9.90;;;4.85;;
78324;SDS011;67584;51.400;6.692;2023-09-30T02:51:53;11.80;;;5.07;;
78324;SDS011;67584;51.400;6.692;2023-09-30T02:54:19;10.77;;;5.53;;
78324;SDS011;67584;51.400;6.692;2023-09-30T02:56:57;13.13;;;5.05;;
78324;SDS011;67584;51.400;6.692;2023-09-30T02:59:23;11.32;;;6.07;;
78324;SDS011;67584;51.400;6.692;2023-09-30T03:01:50;11.30;;;5.30;;
78324;SDS011;67584;51.400;6.692;2023-09-30T03:04:15;9.07;;;4.22;;
78324;SDS011;67584;51.400;6.692;2023-09-30T03:06:44;9.95;;;4.68;;
78324;SDS011;67584;51.400;6.692;2023-09-30T03:09:10;10.18;;;5.18;;
78324;SDS011;67584;51.400;6.692;2023-09-30T03:11:40;10.80;;;5.32;;
78324;SDS011;67584;51.400;6.692;2023-09-30T03:14:08;7.75;;;4.55;;
78324;SDS011;67584;51.400;6.692;2023-09-30T03:16:35;9.48;;;4.70;;
78324;SDS011;67584;51.400;6.692;2023-09-30T03:19:04;7.78;;;5.05;;
78324;SDS011;67584;51.400;6.692;2023-09-30T03:21:30;11.88;;;5.30;;
78324;SDS011;67584;51.400;6.692;2023-09-30T03:23:56;11.85;;;5.45;;
78324;SDS011;67584;51.400;6.692;2023-09-30T03:26:21;13.30;;;6.40;;
78324;SDS011;67584;51.400;6.692;2023-09-30T03:28:47;13.13;;;5.25;;
78324;SDS011;67584;51.400;6.692;2023-09-30T03:31:18;10.90;;;5.50;;
78324;SDS011;67584;51.400;6.692;2023-09-30T03:33:45;12.85;;;5.53;;
78324;SDS011;67584;51.400;6.692;2023-09-30T03:36:13;10.50;;;5.43;;
78324;SDS011;67584;51.400;6.692;2023-09-30T03:38:40;11.18;;;5.70;;
78324;SDS011;67584;51.400;6.692;2023-09-30T03:41:06;10.20;;;7.35;;
78324;SDS011;67584;51.400;6.692;2023-09-30T03:43:34;10.93;;;6.30;;
78324;SDS011;67584;51.400;6.692;2023-09-30T03:46:05;12.25;;;6.00;;
78324;SDS011;67584;51.400;6.692;2023-09-30T03:48:32;9.98;;;5.82;;
78324;SDS011;67584;51.400;6.692;2023-09-30T03:50:57;11.70;;;5.63;;
78324;SDS011;67584;51.400;6.692;2023-09-30T03:55:57;9.68;;;5.22;;
78324;SDS011;67584;51.400;6.692;2023-09-30T03:58:23;11.85;;;5.18;;
78324;SDS011;67584;51.400;6.692;2023-09-30T04:00:49;12.93;;;5.90;;
78324;SDS011;67584;51.400;6.692;2023-09-30T04:03:16;14.05;;;5.63;;
78324;SDS011;67584;51.400;6.692;2023-09-30T04:05:42;9.82;;;5.72;;
78324;SDS011;67584;51.400;6.692;2023-09-30T04:08:08;10.70;;;5.63;;
78324;SDS011;67584;51.400;6.692;2023-09-30T04:10:33;12.32;;;6.80;;
78324;SDS011;67584;51.400;6.692;2023-09-30T04:12:59;10.63;;;5.57;;
78324;SDS011;67584;51.400;6.692;2023-09-30T04:15:25;10.48;;;5.55;;
78324;SDS011;67584;51.400;6.692;2023-09-30T04:17:50;11.00;;;5.78;;
78324;SDS011;67584;51.400;6.692;2023-09-30T04:20:19;13.30;;;6.07;;
78324;SDS011;67584;51.400;6.692;2023-09-30T04:22:48;12.10;;;5.57;;
78324;SDS011;67584;51.400;6.692;2023-09-30T04:25:15;12.15;;;6.32;;
78324;SDS011;67584;51.400;6.692;2023-09-30T04:27:44;13.00;;;5.13;;
78324;SDS011;67584;51.400;6.692;2023-09-30T04:30:11;11.35;;;4.78;;
78324;SDS011;67584;51.400;6.692;2023-09-30T04:32:37;10.50;;;6.68;;
78324;SDS011;67584;51.400;6.692;2023-09-30T04:35:06;10.95;;;6.22;;
78324;SDS011;67584;51.400;6.692;2023-09-30T04:37:36;12.68;;;6.32;;
78324;SDS011;67584;51.400;6.692;2023-09-30T04:40:06;13.05;;;6.45;;
78324;SDS011;67584;51.400;6.692;2023-09-30T04:42:34;12.65;;;6.85;;
78324;SDS011;67584;51.400;6.692;2023-09-30T04:45:02;8.10;;;4.93;;
78324;SDS011;67584;51.400;6.692;2023-09-30T04:47:31;12.52;;;6.32;;
78324;SDS011;67584;51.400;6.692;2023-09-30T04:49:57;14.32;;;6.70;;
78324;SDS011;67584;51.400;6.692;2023-09-30T04:52:23;10.50;;;7.03;;
78324;SDS011;67584;51.400;6.692;2023-09-30T04:54:52;13.27;;;5.80;;
78324;SDS011;67584;51.400;6.692;2023-09-30T04:57:18;12.35;;;6.20;;
78324;SDS011;67584;51.400;6.692;2023-09-30T04:59:44;12.55;;;5.85;;
78324;SDS011;67584;51.400;6.692;2023-09-30T05:02:11;16.13;;;6.82;;
78324;SDS011;67584;51.400;6.692;2023-09-30T05:04:40;12.45;;;6.45;;
78324;SDS011;67584;51.400;6.692;2023-09-30T05:07:06;13.52;;;6.50;;
78324;SDS011;67584;51.400;6.692;2023-09-30T05:09:32;11.52;;;5.90;;
78324;SDS011;67584;51.400;6.692;2023-09-30T05:11:58;11.55;;;6.57;;
78324;SDS011;67584;51.400;6.692;2023-09-30T05:14:24;14.68;;;6.65;;
78324;SDS011;67584;51.400;6.692;2023-09-30T05:16:49;10.63;;;6.57;;
78324;SDS011;67584;51.400;6.692;2023-09-30T05:19:15;12.73;;;6.45;;
78324;SDS011;67584;51.400;6.692;2023-09-30T05:21:41;12.23;;;6.70;;
78324;SDS011;67584;51.400;6.692;2023-09-30T05:24:08;13.93;;;7.50;;
78324;SDS011;67584;51.400;6.692;2023-09-30T05:26:33;13.75;;;7.70;;
78324;SDS011;67584;51.400;6.692;2023-09-30T05:28:59;18.98;;;7.03;;
78324;SDS011;67584;51.400;6.692;2023-09-30T05:31:25;14.02;;;7.60;;
78324;SDS011;67584;51.400;6.692;2023-09-30T05:33:50;16.08;;;8.25;;
78324;SDS011;67584;51.400;6.692;2023-09-30T05:36:16;17.05;;;7.35;;
78324;SDS011;67584;51.400;6.692;2023-09-30T05:38:42;16.45;;;9.52;;
78324;SDS011;67584;51.400;6.692;2023-09-30T05:41:08;17.90;;;7.65;;
78324;SDS011;67584;51.400;6.692;2023-09-30T05:43:33;16.88;;;8.02;;
78324;SDS011;67584;51.400;6.692;2023-09-30T05:45:59;20.13;;;8.13;;
78324;SDS011;67584;51.400;6.692;2023-09-30T05:48:25;17.20;;;7.55;;
78324;SDS011;67584;51.400;6.692;2023-09-30T05:50:51;18.08;;;9.05;;
78324;SDS011;67584;51.400;6.692;2023-09-30T05:53:16;19.65;;;8.80;;
78324;SDS011;67584;51.400;6.692;2023-09-30T05:55:42;17.08;;;8.27;;
78324;SDS011;67584;51.400;6.692;2023-09-30T05:58:09;18.10;;;8.68;;
78324;SDS011;67584;51.400;6.692;2023-09-30T06:00:39;15.52;;;8.57;;
78324;SDS011;67584;51.400;6.692;2023-09-30T06:03:08;18.17;;;8.70;;
78324;SDS011;67584;51.400;6.692;2023-09-30T06:05:38;20.23;;;8.27;;
78324;SDS011;67584;51.400;6.692;2023-09-30T06:08:08;16.90;;;8.25;;
78324;SDS011;67584;51.400;6.692;2023-09-30T06:10:42;17.08;;;7.53;;
78324;SDS011;67584;51.400;6.692;2023-09-30T06:13:08;17.13;;;8.05;;
78324;SDS011;67584;51.400;6.692;2023-09-30T06:15:38;14.15;;;7.53;;
78324;SDS011;67584;51.400;6.692;2023-09-30T06:18:08;22.48;;;8.60;;
78324;SDS011;67584;51.400;6.692;2023-09-30T06:20:35;17.10;;;7.47;;
78324;SDS011;67584;51.400;6.692;2023-09-30T06:23:01;16.48;;;8.55;;
78324;SDS011;67584;51.400;6.692;2023-09-30T06:25:27;15.65;;;7.90;;
78324;SDS011;67584;51.400;6.692;2023-09-30T06:27:53;17.38;;;8.75;;
78324;SDS011;67584;51.400;6.692;2023-09-30T06:30:20;19.42;;;8.13;;
78324;SDS011;67584;51.400;6.692;2023-09-30T06:32:46;16.05;;;7.88;;
78324;SDS011;67584;51.400;6.692;2023-09-30T06:35:12;13.65;;;8.82;;
78324;SDS011;67584;51.400;6.692;2023-09-30T06:37:39;19.00;;;9.38;;
78324;SDS011;67584;51.400;6.692;2023-09-30T06:40:06;17.10;;;9.55;;
78324;SDS011;67584;51.400;6.692;2023-09-30T06:42:34;17.70;;;8.85;;
78324;SDS011;67584;51.400;6.692;2023-09-30T06:45:01;17.90;;;8.95;;
78324;SDS011;67584;51.400;6.692;2023-09-30T06:47:31;18.73;;;9.50;;
78324;SDS011;67584;51.400;6.692;2023-09-30T06:50:07;16.58;;;8.30;;
78324;SDS011;67584;51.400;6.692;2023-09-30T06:52:39;17.40;;;9.25;;
78324;SDS011;67584;51.400;6.692;2023-09-30T06:55:06;16.13;;;8.60;;
78324;SDS011;67584;51.400;6.692;2023-09-30T06:57:33;15.55;;;8.68;;
78324;SDS011;67584;51.400;6.692;2023-09-30T07:00:00;19.10;;;10.63;;
78324;SDS011;67584;51.400;6.692;2023-09-30T07:02:33;17.13;;;8.73;;
78324;SDS011;67584;51.400;6.692;2023-09-30T07:04:58;18.65;;;8.88;;
78324;SDS011;67584;51.400;6.692;2023-09-30T07:07:24;17.15;;;8.32;;
78324;SDS011;67584;51.400;6.692;2023-09-30T07:09:50;18.73;;;10.23;;
78324;SDS011;67584;51.400;6.692;2023-09-30T07:12:16;17.05;;;9.13;;
78324;SDS011;67584;51.400;6.692;2023-09-30T07:14:41;17.35;;;8.13;;
78324;SDS011;67584;51.400;6.692;2023-09-30T07:17:07;15.38;;;9.93;;
78324;SDS011;67584;51.400;6.692;2023-09-30T07:19:33;16.02;;;10.25;;
78324;SDS011;67584;51.400;6.692;2023-09-30T07:21:59;22.58;;;10.45;;
78324;SDS011;67584;51.400;6.692;2023-09-30T07:24:24;15.45;;;9.15;;
78324;SDS011;67584;51.400;6.692;2023-09-30T07:26:50;15.75;;;10.15;;
78324;SDS011;67584;51.400;6.692;2023-09-30T07:29:16;17.45;;;9.57;;
78324;SDS011;67584;51.400;6.692;2023-09-30T07:31:41;16.15;;;9.75;;
78324;SDS011;67584;51.400;6.692;2023-09-30T07:34:07;17.02;;;9.32;;
78324;SDS011;67584;51.400;6.692;2023-09-30T07:36:33;15.13;;;8.75;;
78324;SDS011;67584;51.400;6.692;2023-09-30T07:38:58;18.80;;;9.63;;
78324;SDS011;67584;51.400;6.692;2023-09-30T07:41:26;16.98;;;9.13;;
78324;SDS011;67584;51.400;6.692;2023-09-30T07:43:52;14.68;;;9.50;;
78324;SDS011;67584;51.400;6.692;2023-09-30T07:46:17;16.35;;;8.85;;
78324;SDS011;67584;51.400;6.692;2023-09-30T07:48:43;15.05;;;10.13;;
78324;SDS011;67584;51.400;6.692;2023-09-30T07:51:09;15.20;;;9.43;;
78324;SDS011;67584;51.400;6.692;2023-09-30T07:53:38;16.52;;;9.65;;
78324;SDS011;67584;51.400;6.692;2023-09-30T07:56:05;16.13;;;10.15;;
78324;SDS011;67584;51.400;6.692;2023-09-30T07:58:31;15.48;;;8.88;;
78324;SDS011;67584;51.400;6.692;2023-09-30T08:00:58;18.00;;;10.20;;
78324;SDS011;67584;51.400;6.692;2023-09-30T08:03:23;15.45;;;9.80;;
78324;SDS011;67584;51.400;6.692;2023-09-30T08:05:49;16.42;;;10.20;;
78324;SDS011;67584;51.400;6.692;2023-09-30T08:08:15;15.73;;;11.25;;
78324;SDS011;67584;51.400;6.692;2023-09-30T08:10:42;16.48;;;10.85;;
78324;SDS011;67584;51.400;6.692;2023-09-30T08:13:08;16.67;;;10.38;;
78324;SDS011;67584;51.400;6.692;2023-09-30T08:15:34;16.60;;;10.52;;
78324;SDS011;67584;51.400;6.692;2023-09-30T08:18:00;18.40;;;12.07;;
78324;SDS011;67584;51.400;6.692;2023-09-30T08:20:29;15.82;;;10.35;;
78324;SDS011;67584;51.400;6.692;2023-09-30T08:22:55;20.10;;;12.65;;
78324;SDS011;67584;51.400;6.692;2023-09-30T08:25:21;15.63;;;10.63;;
78324;SDS011;67584;51.400;6.692;2023-09-30T08:27:47;16.52;;;10.10;;
78324;SDS011;67584;51.400;6.692;2023-09-30T08:30:15;19.38;;;11.57;;
78324;SDS011;67584;51.400;6.692;2023-09-30T08:32:41;16.58;;;10.75;;
78324;SDS011;67584;51.400;6.692;2023-09-30T08:35:07;19.45;;;11.10;;
78324;SDS011;67584;51.400;6.692;2023-09-30T08:37:33;14.90;;;10.50;;
78324;SDS011;67584;51.400;6.692;2023-09-30T08:39:58;18.55;;;11.93;;
78324;SDS011;67584;51.400;6.692;2023-09-30T08:42:24;16.35;;;10.25;;
78324;SDS011;67584;51.400;6.692;2023-09-30T08:44:57;14.02;;;9.52;;
78324;SDS011;67584;51.400;6.692;2023-09-30T08:47:25;16.10;;;10.07;;
78324;SDS011;67584;51.400;6.692;2023-09-30T08:49:53;16.30;;;10.07;;
78324;SDS011;67584;51.400;6.692;2023-09-30T08:52:22;14.60;;;10.02;;
78324;SDS011;67584;51.400;6.692;2023-09-30T08:54:50;17.23;;;10.60;;
78324;SDS011;67584;51.400;6.692;2023-09-30T08:57:16;16.13;;;9.85;;
78324;SDS011;67584;51.400;6.692;2023-09-30T08:59:44;14.70;;;9.88;;
78324;SDS011;67584;51.400;6.692;2023-09-30T09:02:13;16.73;;;10.57;;
78324;SDS011;67584;51.400;6.692;2023-09-30T09:04:39;15.13;;;8.90;;
78324;SDS011;67584;51.400;6.692;2023-09-30T09:07:05;17.05;;;9.35;;
78324;SDS011;67584;51.400;6.692;2023-09-30T09:09:31;13.88;;;9.45;;
78324;SDS011;67584;51.400;6.692;2023-09-30T09:11:57;12.07;;;9.30;;
78324;SDS011;67584;51.400;6.692;2023-09-30T09:14:42;15.60;;;10.80;;
78324;SDS011;67584;51.400;6.692;2023-09-30T09:17:08;15.80;;;9.75;;
78324;SDS011;67584;51.400;6.692;2023-09-30T09:19:35;13.63;;;8.25;;
78324;SDS011;67584;51.400;6.692;2023-09-30T09:22:02;15.07;;;9.15;;
78324;SDS011;67584;51.400;6.692;2023-09-30T09:27:08;14.70;;;8.70;;
78324;SDS011;67584;51.400;6.692;2023-09-30T09:29:35;13.35;;;8.57;;
78324;SDS011;67584;51.400;6.692;2023-09-30T09:32:08;11.90;;;8.45;;
78324;SDS011;67584;51.400;6.692;2023-09-30T09:34:38;13.15;;;8.57;;
78324;SDS011;67584;51.400;6.692;2023-09-30T09:37:18;13.10;;;8.13;;
78324;SDS011;67584;51.400;6.692;2023-09-30T09:39:57;13.00;;;8.52;;
78324;SDS011;67584;51.400;6.692;2023-09-30T09:42:24;13.20;;;7.90;;
78324;SDS011;67584;51.400;6.692;2023-09-30T09:44:55;11.00;;;7.60;;
78324;SDS011;67584;51.400;6.692;2023-09-30T09:47:23;7.75;;;5.38;;
78324;SDS011;67584;51.400;6.692;2023-09-30T09:49:49;10.43;;;6.85;;
78324;SDS011;67584;51.400;6.692;2023-09-30T09:52:16;18.75;;;6.07;;
78324;SDS011;67584;51.400;6.692;2023-09-30T09:54:44;10.43;;;7.00;;
78324;SDS011;67584;51.400;6.692;2023-09-30T09:57:11;12.02;;;6.90;;
78324;SDS011;67584;51.400;6.692;2023-09-30T09:59:38;8.55;;;5.43;;
78324;SDS011;67584;51.400;6.692;2023-09-30T10:02:11;8.60;;;5.78;;
78324;SDS011;67584;51.400;6.692;2023-09-30T10:04:42;8.90;;;4.97;;
78324;SDS011;67584;51.400;6.692;2023-09-30T10:07:16;7.97;;;4.72;;
78324;SDS011;67584;51.400;6.692;2023-09-30T10:09:47;8.95;;;5.25;;
78324;SDS011;67584;51.400;6.692;2023-09-30T10:12:15;8.77;;;4.65;;
78324;SDS011;67584;51.400;6.692;2023-09-30T10:14:43;8.70;;;5.18;;
78324;SDS011;67584;51.400;6.692;2023-09-30T10:17:09;10.10;;;4.80;;
78324;SDS011;67584;51.400;6.692;2023-09-30T10:19:35;9.85;;;5.32;;
78324;SDS011;67584;51.400;6.692;2023-09-30T10:24:45;7.47;;;4.50;;
78324;SDS011;67584;51.400;6.692;2023-09-30T10:35:15;11.05;;;5.35;;
78324;SDS011;67584;51.400;6.692;2023-09-30T10:38:36;7.85;;;4.50;;
78324;SDS011;67584;51.400;6.692;2023-09-30T10:40:47;9.32;;;5.57;;
78324;SDS011;67584;51.400;6.692;2023-09-30T10:43:33;7.22;;;5.18;;
78324;SDS011;67584;51.400;6.692;2023-09-30T10:48:57;7.65;;;4.72;;
78324;SDS011;67584;51.400;6.692;2023-09-30T10:51:43;9.05;;;4.90;;
78324;SDS011;67584;51.400;6.692;2023-09-30T10:54:10;8.90;;;4.70;;
78324;SDS011;67584;51.400;6.692;2023-09-30T10:56:37;6.85;;;4.45;;
78324;SDS011;67584;51.400;6.692;2023-09-30T10:59:03;8.30;;;4.32;;
78324;SDS011;67584;51.400;6.692;2023-09-30T11:01:33;8.13;;;4.85;;
78324;SDS011;67584;51.400;6.692;2023-09-30T11:04:07;8.63;;;4.45;;
78324;SDS011;67584;51.400;6.692;2023-09-30T11:06:34;6.93;;;4.18;;
78324;SDS011;67584;51.400;6.692;2023-09-30T11:09:00;7.82;;;4.30;;
78324;SDS011;67584;51.400;6.692;2023-09-30T11:11:32;7.70;;;4.25;;
78324;SDS011;67584;51.400;6.692;2023-09-30T11:16:56;6.70;;;4.03;;
78324;SDS011;67584;51.400;6.692;2023-09-30T11:19:24;4.05;;;2.95;;
78324;SDS011;67584;51.400;6.692;2023-09-30T11:21:53;5.60;;;3.67;;
78324;SDS011;67584;51.400;6.692;2023-09-30T11:24:24;4.97;;;3.47;;
78324;SDS011;67584;51.400;6.692;2023-09-30T11:26:53;6.43;;;3.38;;
78324;SDS011;67584;51.400;6.692;2023-09-30T11:29:20;6.32;;;3.17;;
78324;SDS011;67584;51.400;6.692;2023-09-30T11:31:47;7.10;;;3.35;;
78324;SDS011;67584;51.400;6.692;2023-09-30T11:34:14;6.30;;;3.63;;
78324;SDS011;67584;51.400;6.692;2023-09-30T11:36:47;6.20;;;3.88;;
78324;SDS011;67584;51.400;6.692;2023-09-30T11:41:51;7.72;;;3.20;;
78324;SDS011;67584;51.400;6.692;2023-09-30T11:44:17;7.00;;;3.80;;
78324;SDS011;67584;51.400;6.692;2023-09-30T11:52:02;3.83;;;2.83;;
78324;SDS011;67584;51.400;6.692;2023-09-30T11:54:32;5.72;;;3.28;;
78324;SDS011;67584;51.400;6.692;2023-09-30T11:57:08;6.35;;;3.40;;
78324;SDS011;67584;51.400;6.692;2023-09-30T11:59:41;5.50;;;3.15;;
78324;SDS011;67584;51.400;6.692;2023-09-30T12:02:14;7.50;;;3.25;;
78324;SDS011;67584;51.400;6.692;2023-09-30T12:04:42;5.32;;;2.58;;
78324;SDS011;67584;51.400;6.692;2023-09-30T12:07:08;6.10;;;3.10;;
78324;SDS011;67584;51.400;6.692;2023-09-30T12:09:34;6.28;;;2.95;;
78324;SDS011;67584;51.400;6.692;2023-09-30T12:12:02;5.50;;;2.60;;
78324;SDS011;67584;51.400;6.692;2023-09-30T12:14:28;4.95;;;2.60;;
78324;SDS011;67584;51.400;6.692;2023-09-30T12:16:55;4.50;;;3.35;;
78324;SDS011;67584;51.400;6.692;2023-09-30T12:19:21;5.18;;;3.22;;
78324;SDS011;67584;51.400;6.692;2023-09-30T12:21:47;6.50;;;3.17;;
78324;SDS011;67584;51.400;6.692;2023-09-30T12:24:16;6.45;;;2.92;;
78324;SDS011;67584;51.400;6.692;2023-09-30T12:26:44;5.50;;;2.95;;
78324;SDS011;67584;51.400;6.692;2023-09-30T12:29:16;6.50;;;3.47;;
78324;SDS011;67584;51.400;6.692;2023-09-30T12:31:44;4.60;;;3.03;;
78324;SDS011;67584;51.400;6.692;2023-09-30T12:34:10;5.70;;;2.58;;
78324;SDS011;67584;51.400;6.692;2023-09-30T12:36:37;5.40;;;2.83;;
78324;SDS011;67584;51.400;6.692;2023-09-30T12:39:06;7.57;;;3.03;;
78324;SDS011;67584;51.400;6.692;2023-09-30T12:41:39;6.15;;;3.28;;
78324;SDS011;67584;51.400;6.692;2023-09-30T12:44:05;4.22;;;2.85;;
78324;SDS011;67584;51.400;6.692;2023-09-30T12:46:35;4.18;;;2.92;;
78324;SDS011;67584;51.400;6.692;2023-09-30T12:49:08;4.75;;;3.28;;
78324;SDS011;67584;51.400;6.692;2023-09-30T12:51:34;4.57;;;3.33;;
78324;SDS011;67584;51.400;6.692;2023-09-30T12:54:00;6.20;;;3.20;;
78324;SDS011;67584;51.400;6.692;2023-09-30T12:56:26;6.13;;;3.67;;
78324;SDS011;67584;51.400;6.692;2023-09-30T12:58:54;6.15;;;2.97;;
78324;SDS011;67584;51.400;6.692;2023-09-30T13:01:20;5.03;;;3.55;;
78324;SDS011;67584;51.400;6.692;2023-09-30T13:03:47;4.35;;;3.28;;
78324;SDS011;67584;51.400;6.692;2023-09-30T13:06:14;5.78;;;3.63;;
78324;SDS011;67584;51.400;6.692;2023-09-30T13:08:41;4.75;;;3.80;;
78324;SDS011;67584;51.400;6.692;2023-09-30T13:11:07;5.20;;;2.90;;
78324;SDS011;67584;51.400;6.692;2023-09-30T13:13:32;4.95;;;3.00;;
78324;SDS011;67584;51.400;6.692;2023-09-30T13:15:59;4.65;;;3.33;;
78324;SDS011;67584;51.400;6.692;2023-09-30T13:18:25;5.65;;;3.97;;
78324;SDS011;67584;51.400;6.692;2023-09-30T13:20:50;5.15;;;3.90;;
78324;SDS011;67584;51.400;6.692;2023-09-30T13:23:17;6.93;;;3.80;;
78324;SDS011;67584;51.400;6.692;2023-09-30T13:25:44;5.75;;;3.83;;
78324;SDS011;67584;51.400;6.692;2023-09-30T13:28:10;5.45;;;3.67;;
78324;SDS011;67584;51.400;6.692;2023-09-30T13:30:35;5.72;;;3.60;;
78324;SDS011;67584;51.400;6.692;2023-09-30T13:33:01;4.40;;;3.30;;
78324;SDS011;67584;51.400;6.692;2023-09-30T13:35:27;6.55;;;3.22;;
78324;SDS011;67584;51.400;6.692;2023-09-30T13:37:53;4.63;;;3.13;;
78324;SDS011;67584;51.400;6.692;2023-09-30T13:40:18;4.95;;;3.17;;
78324;SDS011;67584;51.400;6.692;2023-09-30T13:42:45;5.00;;;3.10;;
78324;SDS011;67584;51.400;6.692;2023-09-30T13:45:12;8.05;;;3.35;;
78324;SDS011;67584;51.400;6.692;2023-09-30T13:47:37;4.80;;;3.17;;
78324;SDS011;67584;51.400;6.692;2023-09-30T13:50:03;7.82;;;4.07;;
78324;SDS011;67584;51.400;6.692;2023-09-30T13:52:32;4.38;;;3.20;;
78324;SDS011;67584;51.400;6.692;2023-09-30T13:54:59;5.97;;;3.50;;
78324;SDS011;67584;51.400;6.692;2023-09-30T13:57:24;6.88;;;3.22;;
78324;SDS011;67584;51.400;6.692;2023-09-30T13:59:50;3.55;;;2.80;;
78324;SDS011;67584;51.400;6.692;2023-09-30T14:02:16;7.22;;;4.00;;
78324;SDS011;67584;51.400;6.692;2023-09-30T14:04:41;6.45;;;3.78;;
78324;SDS011;67584;51.400;6.692;2023-09-30T14:07:07;6.88;;;3.42;;
78324;SDS011;67584;51.400;6.692;2023-09-30T14:09:33;5.18;;;3.13;;
78324;SDS011;67584;51.400;6.692;2023-09-30T14:11:59;5.15;;;3.53;;
78324;SDS011;67584;51.400;6.692;2023-09-30T14:14:25;4.07;;;2.92;;
78324;SDS011;67584;51.400;6.692;2023-09-30T14:16:51;4.20;;;3.17;;
78324;SDS011;67584;51.400;6.692;2023-09-30T14:19:17;6.85;;;3.55;;
78324;SDS011;67584;51.400;6.692;2023-09-30T14:21:43;5.85;;;3.58;;
78324;SDS011;67584;51.400;6.692;2023-09-30T14:24:09;5.07;;;3.53;;
78324;SDS011;67584;51.400;6.692;2023-09-30T14:26:36;3.58;;;2.72;;
78324;SDS011;67584;51.400;6.692;2023-09-30T14:29:01;5.28;;;3.70;;
78324;SDS011;67584;51.400;6.692;2023-09-30T14:31:27;5.55;;;3.63;;
78324;SDS011;67584;51.400;6.692;2023-09-30T14:33:53;4.68;;;3.33;;
78324;SDS011;67584;51.400;6.692;2023-09-30T14:36:19;5.07;;;3.30;;
78324;SDS011;67584;51.400;6.692;2023-09-30T14:38:45;5.72;;;3.65;;
78324;SDS011;67584;51.400;6.692;2023-09-30T14:41:13;4.97;;;3.60;;
78324;SDS011;67584;51.400;6.692;2023-09-30T14:43:39;6.28;;;4.13;;
78324;SDS011;67584;51.400;6.692;2023-09-30T14:46:04;4.28;;;3.15;;
78324;SDS011;67584;51.400;6.692;2023-09-30T14:48:30;5.97;;;3.70;;
78324;SDS011;67584;51.400;6.692;2023-09-30T14:50:57;6.88;;;4.13;;
78324;SDS011;67584;51.400;6.692;2023-09-30T14:53:23;5.35;;;3.67;;
78324;SDS011;67584;51.400;6.692;2023-09-30T14:55:49;5.25;;;3.00;;
78324;SDS011;67584;51.400;6.692;2023-09-30T14:58:15;5.53;;;3.88;;
78324;SDS011;67584;51.400;6.692;2023-09-30T15:00:41;7.50;;;3.92;;
78324;SDS011;67584;51.400;6.692;2023-09-30T15:03:07;3.85;;;3.13;;
78324;SDS011;67584;51.400;6.692;2023-09-30T15:05:33;5.65;;;3.28;;
78324;SDS011;67584;51.400;6.692;2023-09-30T15:07:59;5.05;;;3.47;;
78324;SDS011;67584;51.400;6.692;2023-09-30T15:10:27;4.78;;;3.17;;